Aviation Digital Data Service (ADDS)

Output produced by METARs form (1809 UTC 30 October 2014)
found at http://aviationweather.gov/adds/metars/
 
KART 301732Z 3018/3118 29007KT P6SM BKN030 BKN250 
     FM311300 13004KT P6SM BKN030 OVC060 
     FM311400 16005KT P6SM VCSH BKN030 OVC060 
     FM311700 09005KT P6SM VCSH BKN030 OVC060